sensor_id;sensor_type;location;lat;lon;timestamp;P1;durP1;ratioP1;P2;durP2;ratioP2
42104;SDS011;70664;51.472;5.712;2023-07-31T00:00:00;9.30;;;3.10;;
42104;SDS011;70664;51.472;5.712;2023-07-31T00:05:20;10.73;;;3.33;;
42104;SDS011;70664;51.472;5.712;2023-07-31T00:07:51;9.02;;;3.00;;
42104;SDS011;70664;51.472;5.712;2023-07-31T00:10:21;9.70;;;3.20;;
42104;SDS011;70664;51.472;5.712;2023-07-31T00:14:04;6.30;;;3.25;;
42104;SDS011;70664;51.472;5.712;2023-07-31T01:17:49;6.55;;;2.88;;
42104;SDS011;70664;51.472;5.712;2023-07-31T02:15:59;6.80;;;3.00;;
42104;SDS011;70664;51.472;5.712;2023-07-31T02:19:04;8.70;;;3.58;;
42104;SDS011;70664;51.472;5.712;2023-07-31T02:26:55;6.97;;;3.40;;
42104;SDS011;70664;51.472;5.712;2023-07-31T02:30:29;9.25;;;3.80;;
42104;SDS011;70664;51.472;5.712;2023-07-31T02:37:42;7.78;;;3.50;;
42104;SDS011;70664;51.472;5.712;2023-07-31T02:55:50;10.23;;;4.05;;
42104;SDS011;70664;51.472;5.712;2023-07-31T02:58:31;9.20;;;3.55;;
42104;SDS011;70664;51.472;5.712;2023-07-31T03:01:16;7.90;;;3.65;;
42104;SDS011;70664;51.472;5.712;2023-07-31T03:04:20;8.00;;;3.80;;
42104;SDS011;70664;51.472;5.712;2023-07-31T03:07:15;7.65;;;3.60;;
42104;SDS011;70664;51.472;5.712;2023-07-31T03:13:51;7.80;;;3.28;;
42104;SDS011;70664;51.472;5.712;2023-07-31T03:21:25;8.68;;;4.07;;
42104;SDS011;70664;51.472;5.712;2023-07-31T03:29:04;8.50;;;3.45;;
42104;SDS011;70664;51.472;5.712;2023-07-31T03:31:30;8.43;;;3.75;;
42104;SDS011;70664;51.472;5.712;2023-07-31T03:38:34;7.30;;;3.50;;
42104;SDS011;70664;51.472;5.712;2023-07-31T03:50:08;7.72;;;3.50;;
42104;SDS011;70664;51.472;5.712;2023-07-31T03:57:12;9.07;;;3.85;;
42104;SDS011;70664;51.472;5.712;2023-07-31T04:27:33;9.93;;;4.20;;
42104;SDS011;70664;51.472;5.712;2023-07-31T04:38:30;7.50;;;3.60;;
42104;SDS011;70664;51.472;5.712;2023-07-31T05:34:12;10.73;;;3.37;;
42104;SDS011;70664;51.472;5.712;2023-07-31T05:45:09;8.77;;;3.92;;
42104;SDS011;70664;51.472;5.712;2023-07-31T05:52:49;5.28;;;3.08;;
42104;SDS011;70664;51.472;5.712;2023-07-31T05:56:09;6.78;;;3.78;;
42104;SDS011;70664;51.472;5.712;2023-07-31T05:58:43;5.50;;;3.20;;
42104;SDS011;70664;51.472;5.712;2023-07-31T06:01:10;6.13;;;3.50;;
42104;SDS011;70664;51.472;5.712;2023-07-31T06:03:41;7.00;;;3.40;;
42104;SDS011;70664;51.472;5.712;2023-07-31T06:06:27;5.18;;;3.03;;
42104;SDS011;70664;51.472;5.712;2023-07-31T06:08:56;5.68;;;3.08;;
42104;SDS011;70664;51.472;5.712;2023-07-31T06:11:23;8.18;;;3.30;;
42104;SDS011;70664;51.472;5.712;2023-07-31T06:13:52;4.53;;;3.13;;
42104;SDS011;70664;51.472;5.712;2023-07-31T06:17:03;6.55;;;3.35;;
42104;SDS011;70664;51.472;5.712;2023-07-31T06:20:31;6.07;;;3.22;;
42104;SDS011;70664;51.472;5.712;2023-07-31T06:27:42;7.00;;;3.47;;
42104;SDS011;70664;51.472;5.712;2023-07-31T06:34:39;5.05;;;3.17;;
42104;SDS011;70664;51.472;5.712;2023-07-31T06:45:42;5.93;;;3.40;;
42104;SDS011;70664;51.472;5.712;2023-07-31T06:49:17;7.05;;;3.13;;
42104;SDS011;70664;51.472;5.712;2023-07-31T07:00:13;5.72;;;3.20;;
42104;SDS011;70664;51.472;5.712;2023-07-31T07:11:06;10.60;;;3.28;;
42104;SDS011;70664;51.472;5.712;2023-07-31T07:15:14;5.72;;;3.22;;
42104;SDS011;70664;51.472;5.712;2023-07-31T07:21:53;5.90;;;3.03;;
42104;SDS011;70664;51.472;5.712;2023-07-31T07:29:02;6.25;;;3.67;;
42104;SDS011;70664;51.472;5.712;2023-07-31T07:47:29;6.80;;;3.45;;
42104;SDS011;70664;51.472;5.712;2023-07-31T07:58:59;5.60;;;3.47;;
42104;SDS011;70664;51.472;5.712;2023-07-31T08:16:07;5.90;;;3.05;;
42104;SDS011;70664;51.472;5.712;2023-07-31T08:23:06;10.93;;;3.50;;
42104;SDS011;70664;51.472;5.712;2023-07-31T08:26:00;10.73;;;3.20;;
42104;SDS011;70664;51.472;5.712;2023-07-31T08:28:27;6.43;;;2.90;;
42104;SDS011;70664;51.472;5.712;2023-07-31T08:30:53;8.68;;;2.72;;
42104;SDS011;70664;51.472;5.712;2023-07-31T08:33:58;7.53;;;3.07;;
42104;SDS011;70664;51.472;5.712;2023-07-31T08:37:31;4.55;;;2.58;;
42104;SDS011;70664;51.472;5.712;2023-07-31T08:39:57;6.72;;;3.08;;
42104;SDS011;70664;51.472;5.712;2023-07-31T08:42:23;6.43;;;3.58;;
42104;SDS011;70664;51.472;5.712;2023-07-31T08:45:38;8.75;;;3.05;;
42104;SDS011;70664;51.472;5.712;2023-07-31T08:48:41;6.10;;;2.70;;
42104;SDS011;70664;51.472;5.712;2023-07-31T08:51:09;9.18;;;3.10;;
42104;SDS011;70664;51.472;5.712;2023-07-31T08:58:26;7.05;;;3.28;;
42104;SDS011;70664;51.472;5.712;2023-07-31T09:01:46;5.55;;;3.05;;
42104;SDS011;70664;51.472;5.712;2023-07-31T09:04:18;4.90;;;3.22;;
42104;SDS011;70664;51.472;5.712;2023-07-31T09:07:20;5.15;;;2.80;;
42104;SDS011;70664;51.472;5.712;2023-07-31T09:10:04;7.20;;;3.10;;
42104;SDS011;70664;51.472;5.712;2023-07-31T09:12:31;7.32;;;2.95;;
42104;SDS011;70664;51.472;5.712;2023-07-31T09:18:01;6.50;;;2.80;;
42104;SDS011;70664;51.472;5.712;2023-07-31T09:20:35;8.02;;;3.28;;
42104;SDS011;70664;51.472;5.712;2023-07-31T09:23:22;8.65;;;3.45;;
42104;SDS011;70664;51.472;5.712;2023-07-31T09:29:22;8.00;;;3.03;;
42104;SDS011;70664;51.472;5.712;2023-07-31T09:32:46;9.85;;;3.70;;
42104;SDS011;70664;51.472;5.712;2023-07-31T09:46:23;7.93;;;2.75;;
42104;SDS011;70664;51.472;5.712;2023-07-31T09:49:13;6.80;;;3.47;;
42104;SDS011;70664;51.472;5.712;2023-07-31T09:59:31;8.25;;;3.03;;
42104;SDS011;70664;51.472;5.712;2023-07-31T10:14:02;6.45;;;3.20;;
42104;SDS011;70664;51.472;5.712;2023-07-31T10:17:48;8.07;;;3.42;;
42104;SDS011;70664;51.472;5.712;2023-07-31T10:32:40;11.18;;;3.50;;
42104;SDS011;70664;51.472;5.712;2023-07-31T10:38:45;7.40;;;2.83;;
42104;SDS011;70664;51.472;5.712;2023-07-31T10:41:14;8.18;;;3.10;;
42104;SDS011;70664;51.472;5.712;2023-07-31T10:43:43;4.45;;;2.72;;
42104;SDS011;70664;51.472;5.712;2023-07-31T11:00:46;16.20;;;3.40;;
42104;SDS011;70664;51.472;5.712;2023-07-31T11:03:26;7.93;;;2.80;;
42104;SDS011;70664;51.472;5.712;2023-07-31T11:06:42;10.07;;;3.10;;
42104;SDS011;70664;51.472;5.712;2023-07-31T11:10:09;10.80;;;2.95;;
42104;SDS011;70664;51.472;5.712;2023-07-31T11:16:41;13.90;;;3.70;;
42104;SDS011;70664;51.472;5.712;2023-07-31T11:19:56;8.37;;;3.20;;
42104;SDS011;70664;51.472;5.712;2023-07-31T11:26:32;7.65;;;3.20;;
42104;SDS011;70664;51.472;5.712;2023-07-31T11:29:27;7.80;;;3.05;;
42104;SDS011;70664;51.472;5.712;2023-07-31T11:31:53;9.25;;;3.20;;
42104;SDS011;70664;51.472;5.712;2023-07-31T11:36:57;4.68;;;2.75;;
42104;SDS011;70664;51.472;5.712;2023-07-31T11:40:02;6.18;;;3.05;;
42104;SDS011;70664;51.472;5.712;2023-07-31T11:42:57;5.80;;;3.10;;
42104;SDS011;70664;51.472;5.712;2023-07-31T11:45:42;5.43;;;3.22;;
42104;SDS011;70664;51.472;5.712;2023-07-31T11:49:15;5.90;;;3.28;;
42104;SDS011;70664;51.472;5.712;2023-07-31T11:52:42;5.82;;;3.05;;
42104;SDS011;70664;51.472;5.712;2023-07-31T12:11:17;5.32;;;2.60;;
42104;SDS011;70664;51.472;5.712;2023-07-31T12:15:47;6.70;;;2.67;;
42104;SDS011;70664;51.472;5.712;2023-07-31T12:18:08;7.82;;;2.60;;
42104;SDS011;70664;51.472;5.712;2023-07-31T12:20:56;5.82;;;3.17;;
42104;SDS011;70664;51.472;5.712;2023-07-31T12:23:31;5.53;;;2.67;;
42104;SDS011;70664;51.472;5.712;2023-07-31T12:30:25;5.55;;;2.78;;
42104;SDS011;70664;51.472;5.712;2023-07-31T12:32:57;9.63;;;3.13;;
42104;SDS011;70664;51.472;5.712;2023-07-31T12:35:45;5.10;;;2.78;;
42104;SDS011;70664;51.472;5.712;2023-07-31T12:38:12;5.22;;;3.08;;
42104;SDS011;70664;51.472;5.712;2023-07-31T12:40:39;9.63;;;2.97;;
42104;SDS011;70664;51.472;5.712;2023-07-31T12:43:14;10.88;;;3.00;;
42104;SDS011;70664;51.472;5.712;2023-07-31T12:46:15;9.23;;;2.90;;
42104;SDS011;70664;51.472;5.712;2023-07-31T12:48:47;8.13;;;3.38;;
42104;SDS011;70664;51.472;5.712;2023-07-31T12:51:38;9.38;;;3.05;;
42104;SDS011;70664;51.472;5.712;2023-07-31T12:54:07;8.25;;;3.15;;
42104;SDS011;70664;51.472;5.712;2023-07-31T12:56:52;4.60;;;3.20;;
42104;SDS011;70664;51.472;5.712;2023-07-31T12:59:18;9.07;;;4.07;;
42104;SDS011;70664;51.472;5.712;2023-07-31T13:01:57;7.35;;;3.25;;
42104;SDS011;70664;51.472;5.712;2023-07-31T13:04:26;14.32;;;3.20;;
42104;SDS011;70664;51.472;5.712;2023-07-31T13:06:54;6.28;;;3.42;;
42104;SDS011;70664;51.472;5.712;2023-07-31T13:09:21;10.63;;;3.60;;
42104;SDS011;70664;51.472;5.712;2023-07-31T13:11:47;5.10;;;2.90;;
42104;SDS011;70664;51.472;5.712;2023-07-31T13:28:30;10.55;;;3.63;;
42104;SDS011;70664;51.472;5.712;2023-07-31T13:31:31;14.75;;;3.45;;
42104;SDS011;70664;51.472;5.712;2023-07-31T13:34:03;13.63;;;3.40;;
42104;SDS011;70664;51.472;5.712;2023-07-31T13:37:12;20.65;;;3.58;;
42104;SDS011;70664;51.472;5.712;2023-07-31T13:40:44;13.98;;;3.22;;
42104;SDS011;70664;51.472;5.712;2023-07-31T13:58:03;8.10;;;4.00;;
42104;SDS011;70664;51.472;5.712;2023-07-31T14:04:11;12.25;;;4.15;;
42104;SDS011;70664;51.472;5.712;2023-07-31T14:14:09;20.35;;;4.32;;
42104;SDS011;70664;51.472;5.712;2023-07-31T14:17:23;17.98;;;5.00;;
42104;SDS011;70664;51.472;5.712;2023-07-31T14:20:20;14.68;;;4.75;;
42104;SDS011;70664;51.472;5.712;2023-07-31T14:23:28;13.32;;;5.00;;
42104;SDS011;70664;51.472;5.712;2023-07-31T14:26:41;11.02;;;4.85;;
42104;SDS011;70664;51.472;5.712;2023-07-31T14:29:48;9.75;;;4.60;;
42104;SDS011;70664;51.472;5.712;2023-07-31T14:36:17;11.43;;;4.97;;
42104;SDS011;70664;51.472;5.712;2023-07-31T14:39:11;25.15;;;4.55;;
42104;SDS011;70664;51.472;5.712;2023-07-31T14:41:52;9.48;;;4.57;;
42104;SDS011;70664;51.472;5.712;2023-07-31T14:46:23;10.38;;;4.05;;
42104;SDS011;70664;51.472;5.712;2023-07-31T14:57:11;8.82;;;4.55;;
42104;SDS011;70664;51.472;5.712;2023-07-31T15:06:23;7.57;;;4.38;;
42104;SDS011;70664;51.472;5.712;2023-07-31T15:09:07;8.93;;;4.18;;
42104;SDS011;70664;51.472;5.712;2023-07-31T15:12:22;9.32;;;4.30;;
42104;SDS011;70664;51.472;5.712;2023-07-31T15:15:11;11.88;;;4.30;;
42104;SDS011;70664;51.472;5.712;2023-07-31T15:18:23;8.68;;;3.90;;
42104;SDS011;70664;51.472;5.712;2023-07-31T15:21:27;9.45;;;4.40;;
42104;SDS011;70664;51.472;5.712;2023-07-31T15:23:53;8.77;;;4.28;;
42104;SDS011;70664;51.472;5.712;2023-07-31T15:26:22;9.75;;;3.92;;
42104;SDS011;70664;51.472;5.712;2023-07-31T15:28:49;12.63;;;3.97;;
42104;SDS011;70664;51.472;5.712;2023-07-31T15:31:24;13.40;;;3.70;;
42104;SDS011;70664;51.472;5.712;2023-07-31T15:33:50;12.20;;;4.13;;
42104;SDS011;70664;51.472;5.712;2023-07-31T15:36:19;9.18;;;3.80;;
42104;SDS011;70664;51.472;5.712;2023-07-31T15:38:51;12.63;;;3.70;;
42104;SDS011;70664;51.472;5.712;2023-07-31T15:41:22;5.85;;;3.55;;
42104;SDS011;70664;51.472;5.712;2023-07-31T15:47:24;5.75;;;3.50;;
42104;SDS011;70664;51.472;5.712;2023-07-31T15:50:29;5.95;;;3.47;;
42104;SDS011;70664;51.472;5.712;2023-07-31T15:53:16;9.57;;;3.58;;
42104;SDS011;70664;51.472;5.712;2023-07-31T15:59:08;9.18;;;3.50;;
42104;SDS011;70664;51.472;5.712;2023-07-31T16:02:11;10.70;;;3.58;;
42104;SDS011;70664;51.472;5.712;2023-07-31T16:04:38;6.75;;;3.17;;
42104;SDS011;70664;51.472;5.712;2023-07-31T16:07:05;9.18;;;3.30;;
42104;SDS011;70664;51.472;5.712;2023-07-31T16:22:05;10.45;;;3.03;;
42104;SDS011;70664;51.472;5.712;2023-07-31T16:43:25;12.48;;;3.70;;
42104;SDS011;70664;51.472;5.712;2023-07-31T16:50:50;11.07;;;3.50;;
42104;SDS011;70664;51.472;5.712;2023-07-31T16:53:59;8.23;;;3.15;;
42104;SDS011;70664;51.472;5.712;2023-07-31T17:07:48;7.82;;;3.30;;
42104;SDS011;70664;51.472;5.712;2023-07-31T17:10:37;7.25;;;3.60;;
42104;SDS011;70664;51.472;5.712;2023-07-31T17:24:37;10.82;;;2.90;;
42104;SDS011;70664;51.472;5.712;2023-07-31T17:27:38;5.65;;;2.78;;
42104;SDS011;70664;51.472;5.712;2023-07-31T17:30:52;8.07;;;2.33;;
42104;SDS011;70664;51.472;5.712;2023-07-31T17:33:27;6.20;;;2.55;;
42104;SDS011;70664;51.472;5.712;2023-07-31T17:35:53;10.05;;;2.78;;
42104;SDS011;70664;51.472;5.712;2023-07-31T17:38:43;7.78;;;2.63;;
42104;SDS011;70664;51.472;5.712;2023-07-31T17:42:10;5.80;;;2.67;;
42104;SDS011;70664;51.472;5.712;2023-07-31T17:44:55;6.55;;;2.25;;
42104;SDS011;70664;51.472;5.712;2023-07-31T17:47:31;8.00;;;2.50;;
42104;SDS011;70664;51.472;5.712;2023-07-31T17:50:06;5.80;;;2.35;;
42104;SDS011;70664;51.472;5.712;2023-07-31T17:56:01;5.45;;;2.65;;
42104;SDS011;70664;51.472;5.712;2023-07-31T18:02:21;4.30;;;2.30;;
42104;SDS011;70664;51.472;5.712;2023-07-31T18:19:31;4.32;;;1.90;;
42104;SDS011;70664;51.472;5.712;2023-07-31T18:22:49;4.10;;;2.40;;
42104;SDS011;70664;51.472;5.712;2023-07-31T18:25:56;4.57;;;2.30;;
42104;SDS011;70664;51.472;5.712;2023-07-31T18:28:25;5.15;;;1.75;;
42104;SDS011;70664;51.472;5.712;2023-07-31T18:38:54;5.72;;;2.00;;
42104;SDS011;70664;51.472;5.712;2023-07-31T18:42:15;3.33;;;1.67;;
42104;SDS011;70664;51.472;5.712;2023-07-31T18:48:57;3.00;;;1.58;;
42104;SDS011;70664;51.472;5.712;2023-07-31T18:52:04;3.15;;;1.80;;
42104;SDS011;70664;51.472;5.712;2023-07-31T18:54:31;8.50;;;2.30;;
42104;SDS011;70664;51.472;5.712;2023-07-31T18:57:35;7.28;;;1.95;;
42104;SDS011;70664;51.472;5.712;2023-07-31T19:00:07;4.80;;;1.70;;
42104;SDS011;70664;51.472;5.712;2023-07-31T19:03:03;9.32;;;2.22;;
42104;SDS011;70664;51.472;5.712;2023-07-31T19:06:03;6.28;;;1.75;;
42104;SDS011;70664;51.472;5.712;2023-07-31T19:08:42;14.23;;;2.17;;
42104;SDS011;70664;51.472;5.712;2023-07-31T19:11:14;9.07;;;1.92;;
42104;SDS011;70664;51.472;5.712;2023-07-31T19:18:34;4.83;;;2.00;;
42104;SDS011;70664;51.472;5.712;2023-07-31T19:21:33;5.00;;;1.70;;
42104;SDS011;70664;51.472;5.712;2023-07-31T19:24:04;5.45;;;2.05;;
42104;SDS011;70664;51.472;5.712;2023-07-31T19:26:30;7.43;;;1.80;;
42104;SDS011;70664;51.472;5.712;2023-07-31T19:29:08;7.63;;;2.10;;
42104;SDS011;70664;51.472;5.712;2023-07-31T19:31:56;4.43;;;1.73;;
42104;SDS011;70664;51.472;5.712;2023-07-31T19:34:28;6.88;;;2.20;;
42104;SDS011;70664;51.472;5.712;2023-07-31T19:36:56;7.18;;;2.30;;
42104;SDS011;70664;51.472;5.712;2023-07-31T19:39:23;12.65;;;2.50;;
42104;SDS011;70664;51.472;5.712;2023-07-31T19:41:59;7.60;;;2.40;;
42104;SDS011;70664;51.472;5.712;2023-07-31T19:44:25;7.18;;;2.53;;
42104;SDS011;70664;51.472;5.712;2023-07-31T19:55:50;9.70;;;2.70;;
42104;SDS011;70664;51.472;5.712;2023-07-31T19:58:26;10.13;;;2.70;;
42104;SDS011;70664;51.472;5.712;2023-07-31T20:01:00;10.77;;;2.80;;
42104;SDS011;70664;51.472;5.712;2023-07-31T20:06:28;7.93;;;3.05;;
42104;SDS011;70664;51.472;5.712;2023-07-31T20:09:15;4.78;;;2.20;;
42104;SDS011;70664;51.472;5.712;2023-07-31T20:16:20;11.13;;;2.83;;
42104;SDS011;70664;51.472;5.712;2023-07-31T20:19:36;4.47;;;2.35;;
42104;SDS011;70664;51.472;5.712;2023-07-31T20:23:02;5.60;;;2.70;;
42104;SDS011;70664;51.472;5.712;2023-07-31T20:25:28;8.02;;;2.42;;
42104;SDS011;70664;51.472;5.712;2023-07-31T20:32:02;7.60;;;2.78;;
42104;SDS011;70664;51.472;5.712;2023-07-31T20:34:49;6.85;;;2.67;;
42104;SDS011;70664;51.472;5.712;2023-07-31T20:37:50;6.60;;;2.72;;
42104;SDS011;70664;51.472;5.712;2023-07-31T20:44:11;8.75;;;2.60;;
42104;SDS011;70664;51.472;5.712;2023-07-31T20:49:54;13.02;;;2.50;;
42104;SDS011;70664;51.472;5.712;2023-07-31T20:52:20;9.00;;;2.42;;
42104;SDS011;70664;51.472;5.712;2023-07-31T20:54:49;7.18;;;2.42;;
42104;SDS011;70664;51.472;5.712;2023-07-31T20:57:17;10.13;;;2.47;;
42104;SDS011;70664;51.472;5.712;2023-07-31T20:59:42;7.80;;;2.40;;
42104;SDS011;70664;51.472;5.712;2023-07-31T21:02:16;4.40;;;2.10;;
42104;SDS011;70664;51.472;5.712;2023-07-31T21:04:42;6.70;;;2.05;;
42104;SDS011;70664;51.472;5.712;2023-07-31T21:07:07;3.50;;;1.80;;
42104;SDS011;70664;51.472;5.712;2023-07-31T21:09:42;5.65;;;2.00;;
42104;SDS011;70664;51.472;5.712;2023-07-31T21:12:27;4.53;;;2.15;;
42104;SDS011;70664;51.472;5.712;2023-07-31T21:14:59;7.05;;;2.17;;
42104;SDS011;70664;51.472;5.712;2023-07-31T21:17:27;5.28;;;2.00;;
42104;SDS011;70664;51.472;5.712;2023-07-31T21:19:54;5.68;;;2.35;;
42104;SDS011;70664;51.472;5.712;2023-07-31T21:22:19;4.50;;;2.15;;
42104;SDS011;70664;51.472;5.712;2023-07-31T21:25:04;7.05;;;2.35;;
42104;SDS011;70664;51.472;5.712;2023-07-31T21:36:20;3.50;;;2.08;;
42104;SDS011;70664;51.472;5.712;2023-07-31T21:38:46;4.82;;;2.25;;
42104;SDS011;70664;51.472;5.712;2023-07-31T21:41:15;6.65;;;2.38;;
42104;SDS011;70664;51.472;5.712;2023-07-31T21:43:41;4.78;;;2.35;;
42104;SDS011;70664;51.472;5.712;2023-07-31T21:46:09;4.60;;;2.17;;
42104;SDS011;70664;51.472;5.712;2023-07-31T21:49:13;5.38;;;2.17;;
42104;SDS011;70664;51.472;5.712;2023-07-31T21:51:45;4.57;;;2.10;;
42104;SDS011;70664;51.472;5.712;2023-07-31T21:54:37;3.60;;;1.65;;
42104;SDS011;70664;51.472;5.712;2023-07-31T21:57:31;5.32;;;2.20;;
42104;SDS011;70664;51.472;5.712;2023-07-31T22:00:33;5.00;;;1.95;;
42104;SDS011;70664;51.472;5.712;2023-07-31T22:15:04;5.45;;;1.90;;
42104;SDS011;70664;51.472;5.712;2023-07-31T23:32:24;3.13;;;1.70;;
